Time;durP1;ratioP1;P1;durP2;ratioP2;P2;SDS_P1;SDS_P2;PMS_P1;PMS_P2;Temp;Humidity;BMP_temperature;BMP_pressure;BME280_temperature;BME280_humidity;BME280_pressure;Samples;Min_cycle;Max_cycle;Signal;HPM_P1;HPM_P2
2023/03/31 00:00:38;;;;;;;;;0.00;0.00;;;;;11.99;73.56;98812.97;5129010;27;8814;-61
2023/03/31 00:03:09;;;;;;;;;0.50;0.00;;;;;11.98;73.67;98816.63;5139913;27;8826;-61
2023/03/31 00:05:37;;;;;;;;;0.00;0.00;;;;;11.97;74.02;98812.28;5139544;27;8837;-61
2023/03/31 00:08:06;;;;;;;;;0.00;0.00;;;;;11.97;73.45;98809.63;5139791;27;8833;-59
2023/03/31 00:10:33;;;;;;;;;1.00;1.00;;;;;11.97;74.10;98800.81;5139692;27;8822;-60
2023/03/31 00:13:01;;;;;;;;;0.00;0.00;;;;;11.96;74.09;98797.28;5139439;27;8825;-60
2023/03/31 00:15:29;;;;;;;;;0.00;0.00;;;;;11.92;74.01;98781.75;5139385;27;8829;-61
2023/03/31 00:17:59;;;;;;;;;0.00;0.00;;;;;11.88;74.00;98781.22;5139419;27;8872;-61
2023/03/31 00:20:27;;;;;;;;;0.00;0.00;;;;;11.81;74.16;98774.84;5139600;27;8845;-60
2023/03/31 00:22:56;;;;;;;;;0.25;0.00;;;;;11.76;74.37;98769.16;5139541;27;8850;-61
2023/03/31 00:25:24;;;;;;;;;0.00;0.00;;;;;11.72;74.18;98769.63;5139332;27;9553;-61
2023/03/31 00:27:51;;;;;;;;;0.00;0.00;;;;;11.68;74.63;98766.44;5138470;27;8902;-61
2023/03/31 00:30:19;;;;;;;;;0.00;0.00;;;;;11.64;74.54;98761.59;5138689;27;8839;-60
2023/03/31 00:32:47;;;;;;;;;0.50;0.00;;;;;11.60;74.31;98753.06;5129333;27;8824;-61
2023/03/31 00:35:15;;;;;;;;;0.50;0.00;;;;;11.58;74.65;98755.06;5118763;28;8954;-60
2023/03/31 00:37:44;;;;;;;;;0.00;0.00;;;;;11.55;74.38;98747.34;5118726;28;8845;-61
2023/03/31 00:40:12;;;;;;;;;0.00;0.00;;;;;11.51;74.66;98745.97;5118502;28;8840;-60
2023/03/31 00:42:40;;;;;;;;;0.00;0.00;;;;;11.49;74.69;98737.31;5119348;28;8853;-61
2023/03/31 00:45:08;;;;;;;;;0.50;0.50;;;;;11.49;74.64;98736.47;5118415;28;8827;-60
2023/03/31 00:47:36;;;;;;;;;0.00;0.00;;;;;11.46;75.10;98726.94;5118628;28;8832;-61
2023/03/31 00:50:04;;;;;;;;;0.75;0.75;;;;;11.45;74.76;98717.28;5118043;28;8867;-60
2023/03/31 00:52:34;;;;;;;;;0.50;0.00;;;;;11.42;74.48;98725.59;5117679;28;8847;-60
2023/03/31 00:55:02;;;;;;;;;0.00;0.00;;;;;11.41;74.63;98715.94;5117921;28;8827;-61
2023/03/31 00:57:31;;;;;;;;;0.75;0.25;;;;;11.42;74.89;98709.59;5117771;28;8857;-61
2023/03/31 00:59:59;;;;;;;;;1.00;1.00;;;;;11.41;74.40;98705.28;5122431;27;8825;-60
2023/03/31 01:02:27;;;;;;;;;0.00;0.00;;;;;11.40;74.42;98705.44;5137830;27;8851;-61
2023/03/31 01:04:56;;;;;;;;;0.00;0.00;;;;;11.40;74.93;98711.59;5137315;27;8829;-59
2023/03/31 01:07:24;;;;;;;;;0.00;0.00;;;;;11.42;74.74;98704.28;5138581;27;8822;-61
2023/03/31 01:09:53;;;;;;;;;0.25;0.00;;;;;11.48;74.59;98703.66;5138802;27;9538;-59
2023/03/31 01:12:20;;;;;;;;;0.00;0.00;;;;;11.54;74.03;98708.31;5138646;27;8833;-61
2023/03/31 01:14:48;;;;;;;;;0.00;0.00;;;;;11.59;74.60;98695.41;5138613;27;8844;-59
2023/03/31 01:17:17;;;;;;;;;0.50;0.50;;;;;11.64;74.18;98702.91;5138243;27;8829;-59
2023/03/31 01:19:46;;;;;;;;;0.00;0.00;;;;;11.68;74.38;98693.63;5137951;27;8856;-61
2023/03/31 01:22:13;;;;;;;;;1.00;1.00;;;;;11.71;74.57;98690.63;5138045;27;8829;-58
2023/03/31 01:24:46;;;;;;;;;0.00;0.00;;;;;11.71;74.59;98683.47;5137996;27;8822;-58
2023/03/31 01:27:14;;;;;;;;;0.00;0.00;;;;;11.61;74.67;98689.91;5137838;27;8840;-60
2023/03/31 01:29:42;;;;;;;;;0.00;0.00;;;;;11.39;75.10;98682.44;5137758;27;8821;-59
2023/03/31 01:32:09;;;;;;;;;1.00;0.25;;;;;11.21;75.98;98687.81;5133676;27;8816;-60
2023/03/31 01:34:37;;;;;;;;;1.00;1.00;;;;;11.05;76.04;98682.38;5117702;28;8840;-60
2023/03/31 01:37:05;;;;;;;;;0.00;0.00;;;;;10.95;76.78;98672.81;5117630;28;8851;-57
2023/03/31 01:39:33;;;;;;;;;1.00;1.00;;;;;10.87;76.98;98659.44;5116832;28;8847;-58
2023/03/31 01:42:00;;;;;;;;;0.00;0.00;;;;;10.80;76.67;98661.03;5117785;28;8842;-59
2023/03/31 01:44:28;;;;;;;;;0.25;0.00;;;;;10.74;77.39;98659.84;5117468;28;8913;-59
2023/03/31 01:46:56;;;;;;;;;0.00;0.00;;;;;10.71;77.60;98649.47;5117078;28;8928;-60
2023/03/31 01:49:24;;;;;;;;;0.00;0.00;;;;;10.68;77.33;98639.16;5117247;28;8844;-60
2023/03/31 01:51:52;;;;;;;;;1.00;0.75;;;;;10.66;77.64;98633.16;5117114;28;8855;-58
2023/03/31 01:54:20;;;;;;;;;1.00;1.00;;;;;10.65;77.22;98627.97;5117093;28;8838;-57
2023/03/31 01:56:48;;;;;;;;;1.00;1.00;;;;;10.63;77.42;98624.66;5117201;28;8812;-58
2023/03/31 01:59:15;;;;;;;;;1.00;1.00;;;;;10.63;77.80;98608.69;5116730;28;9498;-57
2023/03/31 02:01:43;;;;;;;;;2.00;0.75;;;;;10.63;77.39;98606.81;5135915;27;8822;-58
2023/03/31 02:04:11;;;;;;;;;1.00;1.00;;;;;10.63;77.60;98604.16;5137717;27;8838;-58
2023/03/31 02:06:39;;;;;;;;;0.00;0.00;;;;;10.64;78.02;98600.53;5137482;27;9502;-59
2023/03/31 02:09:09;;;;;;;;;1.00;1.00;;;;;10.62;77.60;98591.84;5137483;27;8841;-60
2023/03/31 02:11:37;;;;;;;;;0.00;0.00;;;;;10.62;78.03;98589.19;5137030;27;8879;-59
2023/03/31 02:14:04;;;;;;;;;0.25;0.25;;;;;10.62;78.20;98583.06;5137499;27;8828;-60
2023/03/31 02:16:32;;;;;;;;;0.00;0.00;;;;;10.60;78.38;98571.69;5137766;27;8818;-58
2023/03/31 02:19:02;;;;;;;;;0.25;0.25;;;;;10.57;78.40;98564.88;5136933;27;8825;-59
2023/03/31 02:21:30;;;;;;;;;0.00;0.00;;;;;10.57;78.32;98572.03;5137018;27;8830;-60
2023/03/31 02:23:57;;;;;;;;;0.00;0.00;;;;;10.56;78.24;98560.53;5137347;27;8825;-59
2023/03/31 02:26:26;;;;;;;;;1.75;1.75;;;;;10.58;79.14;98560.38;5137425;27;8810;-57
2023/03/31 02:28:54;;;;;;;;;1.00;1.00;;;;;10.60;78.91;98551.25;5137103;27;8822;-60
2023/03/31 02:31:22;;;;;;;;;0.00;0.00;;;;;10.63;79.02;98542.94;5137312;27;8954;-60
2023/03/31 02:33:50;;;;;;;;;0.50;0.00;;;;;10.66;78.77;98542.66;5117990;27;8854;-60
2023/03/31 02:36:18;;;;;;;;;0.00;0.00;;;;;10.71;78.77;98539.50;5115659;28;8920;-60
2023/03/31 02:38:45;;;;;;;;;0.00;0.00;;;;;10.74;78.56;98532.03;5116381;28;9493;-60
2023/03/31 02:41:13;;;;;;;;;1.00;0.25;;;;;10.77;78.78;98533.56;5116072;28;8820;-60
2023/03/31 02:43:41;;;;;;;;;0.75;0.50;;;;;10.80;78.20;98531.41;5116786;28;8925;-60
2023/03/31 02:46:10;;;;;;;;;0.00;0.00;;;;;10.84;78.39;98527.44;5116161;28;8852;-60
2023/03/31 02:48:38;;;;;;;;;1.00;0.50;;;;;10.87;78.05;98523.63;5116373;28;9477;-59
2023/03/31 02:51:06;;;;;;;;;0.25;0.25;;;;;10.86;78.54;98520.13;5115716;28;8804;-60
2023/03/31 02:53:34;;;;;;;;;0.25;0.00;;;;;10.85;78.39;98513.13;5119747;28;9490;-60
2023/03/31 02:56:03;;;;;;;;;0.00;0.00;;;;;10.84;78.74;98505.31;5119972;28;8843;-58
2023/03/31 02:58:33;;;;;;;;;0.00;0.00;;;;;10.82;79.14;98504.59;5120547;28;8897;-58
2023/03/31 03:01:00;;;;;;;;;1.00;1.00;;;;;10.81;79.11;98493.16;5133749;27;9493;-60
2023/03/31 03:03:28;;;;;;;;;1.00;0.75;;;;;10.82;78.68;98488.63;5126552;27;9478;-60
2023/03/31 03:05:57;;;;;;;;;0.75;0.75;;;;;10.81;78.65;98474.50;5120114;28;8812;-58
2023/03/31 03:08:25;;;;;;;;;0.25;0.00;;;;;10.84;78.86;98466.19;5119496;28;8890;-60
2023/03/31 03:10:53;;;;;;;;;0.00;0.00;;;;;10.86;78.99;98456.19;5119889;28;8819;-60
2023/03/31 03:13:20;;;;;;;;;0.75;0.00;;;;;10.88;78.50;98446.25;5120078;28;8860;-60
2023/03/31 03:15:48;;;;;;;;;1.50;1.50;;;;;10.90;78.83;98432.75;5119894;28;8832;-57
2023/03/31 03:18:16;;;;;;;;;0.00;0.00;;;;;10.91;78.69;98427.28;5120566;28;8816;-60
2023/03/31 03:20:47;;;;;;;;;1.00;1.00;;;;;10.92;78.95;98418.28;5120143;28;8845;-58
2023/03/31 03:23:15;;;;;;;;;0.00;0.00;;;;;10.93;78.69;98413.81;5120177;28;8828;-58
2023/03/31 03:25:43;;;;;;;;;2.00;0.00;;;;;10.93;78.85;98409.28;5119356;28;8814;-58
2023/03/31 03:28:10;;;;;;;;;1.00;0.25;;;;;10.95;78.58;98401.16;5120199;28;8868;-58
2023/03/31 03:30:38;;;;;;;;;2.50;2.50;;;;;10.96;78.42;98405.47;5119641;28;8820;-60
2023/03/31 03:33:06;;;;;;;;;0.25;0.00;;;;;10.98;78.73;98412.31;5119560;28;8897;-58
2023/03/31 03:35:34;;;;;;;;;1.00;1.00;;;;;11.01;78.34;98401.31;5118829;28;8827;-59
2023/03/31 03:38:02;;;;;;;;;0.50;0.50;;;;;11.02;79.00;98397.69;5119752;28;8828;-59
2023/03/31 03:40:30;;;;;;;;;1.00;1.00;;;;;11.03;78.90;98383.38;5119422;28;8811;-59
2023/03/31 03:42:58;;;;;;;;;1.00;1.00;;;;;11.05;78.47;98384.03;5119995;28;8863;-59
2023/03/31 03:45:25;;;;;;;;;1.00;1.00;;;;;11.04;78.41;98369.06;5119007;28;8828;-59
2023/03/31 03:47:53;;;;;;;;;1.00;1.00;;;;;11.04;78.44;98362.88;5119436;28;8858;-58
2023/03/31 03:50:20;;;;;;;;;0.00;0.00;;;;;11.02;78.62;98355.06;5118817;28;8844;-58
2023/03/31 03:52:48;;;;;;;;;0.50;0.00;;;;;11.01;78.46;98352.56;5118532;28;8820;-59
2023/03/31 03:55:16;;;;;;;;;1.00;1.00;;;;;11.01;79.17;98347.25;5118685;28;8843;-59
2023/03/31 03:57:44;;;;;;;;;3.00;1.00;;;;;11.02;78.90;98336.44;5118867;28;8851;-60
2023/03/31 04:00:13;;;;;;;;;1.00;1.00;;;;;11.03;78.29;98324.78;5124433;27;8902;-61
2023/03/31 04:02:41;;;;;;;;;1.00;1.00;;;;;11.04;78.72;98326.44;5129935;27;8820;-60
2023/03/31 04:05:09;;;;;;;;;0.75;0.00;;;;;11.05;78.89;98328.09;5118530;28;8946;-61
2023/03/31 04:07:37;;;;;;;;;1.00;1.00;;;;;11.05;78.38;98328.09;5118668;28;8808;-60
2023/03/31 04:10:04;;;;;;;;;0.00;0.00;;;;;11.08;78.48;98334.94;5118460;28;8824;-60
2023/03/31 04:12:32;;;;;;;;;1.00;0.00;;;;;11.09;78.43;98332.09;5118680;28;8816;-61
2023/03/31 04:15:00;;;;;;;;;0.00;0.00;;;;;11.09;78.24;98318.75;5118112;28;8851;-61
2023/03/31 04:17:33;;;;;;;;;1.00;1.00;;;;;11.10;78.57;98303.63;5118619;28;8839;-59
2023/03/31 04:20:03;;;;;;;;;0.00;0.00;;;;;11.09;78.54;98289.47;5118926;28;8841;-61
2023/03/31 04:22:33;;;;;;;;;0.00;0.00;;;;;11.08;79.02;98298.44;5118246;28;8831;-60
2023/03/31 04:25:01;;;;;;;;;0.00;0.00;;;;;11.08;78.59;98290.47;5118337;28;8862;-60
2023/03/31 04:27:29;;;;;;;;;0.00;0.00;;;;;11.07;78.76;98298.63;5118287;28;8816;-60
2023/03/31 04:29:57;;;;;;;;;0.00;0.00;;;;;11.06;78.74;98287.13;5122276;27;8806;-60
2023/03/31 04:32:25;;;;;;;;;0.00;0.00;;;;;11.06;78.40;98283.66;5139308;27;8824;-61
2023/03/31 04:35:01;;;;;;;;;0.00;0.00;;;;;11.07;78.47;98280.00;5122377;27;8828;-61
2023/03/31 04:37:33;;;;;;;;;1.00;0.50;;;;;11.05;78.17;98277.50;5118197;28;8836;-61
2023/03/31 04:40:05;;;;;;;;;0.00;0.00;;;;;11.04;78.61;98264.31;5118427;28;8824;-60
2023/03/31 04:42:33;;;;;;;;;3.50;1.00;;;;;11.03;78.46;98265.31;5118471;28;8836;-59
2023/03/31 04:45:01;;;;;;;;;0.00;0.00;;;;;11.01;78.97;98257.50;5118076;28;8820;-60
2023/03/31 04:47:28;;;;;;;;;0.25;0.25;;;;;10.99;78.98;98261.34;5118247;28;8834;-60
2023/03/31 04:49:56;;;;;;;;;1.00;1.00;;;;;10.96;78.62;98248.34;5117489;28;8852;-60
2023/03/31 04:52:24;;;;;;;;;1.00;0.50;;;;;10.93;78.65;98243.38;5117422;28;8847;-61
2023/03/31 04:54:51;;;;;;;;;0.00;0.00;;;;;10.90;79.13;98249.84;5117887;28;8831;-61
2023/03/31 04:57:19;;;;;;;;;0.00;0.00;;;;;10.92;79.24;98249.69;5117886;28;8832;-58
2023/03/31 04:59:47;;;;;;;;;0.50;0.00;;;;;10.92;79.30;98247.84;5120409;27;8920;-60
2023/03/31 05:02:22;;;;;;;;;1.00;0.75;;;;;10.95;79.42;98252.00;5138444;27;8843;-61
2023/03/31 05:04:52;;;;;;;;;0.00;0.00;;;;;10.97;78.85;98245.53;5137966;27;8856;-59
2023/03/31 05:07:20;;;;;;;;;0.00;0.00;;;;;10.95;78.90;98239.53;5137667;27;8810;-61
2023/03/31 05:09:47;;;;;;;;;1.50;1.50;;;;;10.88;79.25;98227.88;5134368;27;8820;-60
2023/03/31 05:12:15;;;;;;;;;2.50;1.00;;;;;10.82;79.39;98228.53;5116351;28;8828;-59
2023/03/31 05:14:43;;;;;;;;;0.50;0.00;;;;;10.80;79.57;98230.53;5116233;28;8831;-60
2023/03/31 05:17:10;;;;;;;;;0.50;0.50;;;;;10.79;80.10;98226.22;5116258;28;8842;-60
2023/03/31 05:19:38;;;;;;;;;0.75;0.75;;;;;10.76;79.69;98223.88;5117028;28;8840;-60
2023/03/31 05:22:06;;;;;;;;;0.50;0.50;;;;;10.73;79.81;98213.56;5116046;28;8855;-60
2023/03/31 05:24:33;;;;;;;;;0.00;0.00;;;;;10.67;80.16;98184.94;5115685;28;8824;-61
2023/03/31 05:27:01;;;;;;;;;1.00;1.00;;;;;10.64;80.71;98185.28;5116083;28;8920;-60
2023/03/31 05:29:30;;;;;;;;;1.00;0.00;;;;;10.61;80.84;98188.25;5115647;27;8870;-58
2023/03/31 05:31:57;;;;;;;;;0.00;0.00;;;;;10.59;80.69;98181.44;5135812;27;8850;-59
2023/03/31 05:34:25;;;;;;;;;0.00;0.00;;;;;10.57;80.77;98172.78;5136069;27;8840;-59
2023/03/31 05:36:53;;;;;;;;;2.00;0.75;;;;;10.55;80.89;98164.13;5135913;27;8826;-58
2023/03/31 05:39:21;;;;;;;;;0.50;0.00;;;;;10.53;80.97;98151.00;5135690;27;8822;-59
2023/03/31 05:41:48;;;;;;;;;1.00;1.00;;;;;10.50;81.40;98140.69;5135364;27;8853;-60
2023/03/31 05:44:19;;;;;;;;;0.00;0.00;;;;;10.47;81.51;98135.69;5136228;27;8849;-60
2023/03/31 05:46:47;;;;;;;;;0.25;0.25;;;;;10.46;81.04;98118.06;5136187;27;8837;-60
2023/03/31 05:49:16;;;;;;;;;0.50;0.00;;;;;10.46;80.99;98123.38;5135609;27;8849;-60
2023/03/31 05:51:43;;;;;;;;;0.50;0.50;;;;;10.46;81.17;98112.72;5136275;27;8853;-61
2023/03/31 05:54:11;;;;;;;;;0.00;0.00;;;;;10.47;81.30;98111.72;5135745;27;8822;-60
2023/03/31 05:56:39;;;;;;;;;0.00;0.00;;;;;10.51;81.06;98098.94;5135885;27;8826;-61
2023/03/31 05:59:07;;;;;;;;;0.00;0.00;;;;;10.54;80.62;98104.75;5135794;27;8871;-61
2023/03/31 06:01:35;;;;;;;;;1.00;1.00;;;;;10.57;80.52;98091.13;5135146;27;8814;-60
2023/03/31 06:04:02;;;;;;;;;0.00;0.00;;;;;10.60;80.68;98096.09;5134600;27;8841;-61
2023/03/31 06:06:32;;;;;;;;;0.00;0.00;;;;;10.67;80.83;98094.44;5133527;27;8822;-61
2023/03/31 06:09:03;;;;;;;;;0.00;0.00;;;;;10.73;80.17;98071.63;5134303;27;8842;-59
2023/03/31 06:11:30;;;;;;;;;0.00;0.00;;;;;10.76;80.11;98064.13;5116642;27;8847;-61
2023/03/31 06:13:58;;;;;;;;;0.00;0.00;;;;;10.80;79.90;98072.63;5113444;28;8852;-61
2023/03/31 06:16:27;;;;;;;;;0.00;0.00;;;;;10.85;79.63;98080.94;5112560;28;8862;-59
2023/03/31 06:18:55;;;;;;;;;0.00;0.00;;;;;10.89;79.17;98060.94;5111706;28;8820;-61
2023/03/31 06:21:23;;;;;;;;;0.00;0.00;;;;;10.92;79.18;98058.78;5113126;28;8909;-61
2023/03/31 06:23:54;;;;;;;;;0.00;0.00;;;;;10.96;79.33;98057.44;5112066;28;9010;-61
2023/03/31 06:26:22;;;;;;;;;0.00;0.00;;;;;10.98;79.16;98023.47;5112593;28;8844;-61
2023/03/31 06:28:50;;;;;;;;;0.00;0.00;;;;;11.03;78.78;98037.13;5111746;28;8838;-61
2023/03/31 06:31:18;;;;;;;;;0.00;0.00;;;;;11.05;78.64;98045.75;5126159;27;8972;-60
2023/03/31 06:33:46;;;;;;;;;0.00;0.00;;;;;11.08;78.89;98034.75;5131190;27;8852;-61
2023/03/31 06:36:14;;;;;;;;;0.00;0.00;;;;;11.11;78.54;98044.22;5131782;27;8829;-61
2023/03/31 06:38:42;;;;;;;;;0.00;0.00;;;;;11.14;78.31;98030.59;5132285;27;8833;-61
2023/03/31 06:41:10;;;;;;;;;0.00;0.00;;;;;11.16;78.22;98029.38;5133216;27;8926;-61
2023/03/31 06:43:37;;;;;;;;;1.00;1.00;;;;;11.16;78.21;98032.06;5133447;27;8872;-61
2023/03/31 06:46:06;;;;;;;;;0.00;0.00;;;;;11.11;78.50;98014.94;5133165;27;8822;-61
2023/03/31 06:48:34;;;;;;;;;1.50;1.50;;;;;11.02;78.83;98030.13;5133295;27;8975;-61
2023/03/31 06:51:02;;;;;;;;;0.00;0.00;;;;;10.90;78.92;98020.84;5132514;27;9550;-61
2023/03/31 06:53:30;;;;;;;;;0.50;0.25;;;;;10.81;79.31;98023.69;5131889;27;8840;-60
2023/03/31 06:55:58;;;;;;;;;0.00;0.00;;;;;10.74;79.64;98023.56;5130650;27;8874;-60
2023/03/31 06:58:26;;;;;;;;;0.00;0.00;;;;;10.70;79.62;98014.22;5132137;27;8830;-61
2023/03/31 07:00:57;;;;;;;;;0.00;0.00;;;;;10.66;79.57;98010.25;5131136;27;8846;-59
2023/03/31 07:03:28;;;;;;;;;0.00;0.00;;;;;10.63;79.60;98002.59;5131533;27;8829;-59
2023/03/31 07:05:56;;;;;;;;;0.00;0.00;;;;;10.58;80.29;98002.28;5133470;27;8852;-60
2023/03/31 07:08:23;;;;;;;;;0.00;0.00;;;;;10.54;80.30;98003.63;5133949;27;8844;-60
2023/03/31 07:10:52;;;;;;;;;0.00;0.00;;;;;10.52;80.30;98005.63;5133870;27;8857;-61
2023/03/31 07:13:19;;;;;;;;;0.00;0.00;;;;;10.49;80.68;98005.97;5134065;27;8932;-59
2023/03/31 07:15:48;;;;;;;;;0.00;0.00;;;;;10.46;80.80;98005.47;5134469;27;8825;-61
2023/03/31 07:18:16;;;;;;;;;1.00;0.50;;;;;10.40;81.09;98017.59;5133848;27;8830;-61
2023/03/31 07:20:44;;;;;;;;;0.00;0.00;;;;;10.35;80.61;98016.47;5131934;27;8848;-60
2023/03/31 07:23:12;;;;;;;;;0.00;0.00;;;;;10.29;81.17;98003.81;5132617;27;8958;-60
2023/03/31 07:25:40;;;;;;;;;0.00;0.00;;;;;10.24;81.71;98016.81;5132547;27;8848;-59
2023/03/31 07:28:08;;;;;;;;;0.00;0.00;;;;;10.20;81.36;98012.81;5132744;27;8822;-60
2023/03/31 07:30:36;;;;;;;;;0.00;0.00;;;;;10.17;81.33;98005.97;5133779;27;8830;-60
2023/03/31 07:33:04;;;;;;;;;0.00;0.00;;;;;10.15;81.50;98000.00;5133424;27;8818;-60
2023/03/31 07:35:32;;;;;;;;;0.25;0.00;;;;;10.12;81.63;97997.69;5133258;27;8861;-60
2023/03/31 07:38:00;;;;;;;;;0.00;0.00;;;;;10.10;82.04;97994.34;5134660;27;8830;-60
2023/03/31 07:40:28;;;;;;;;;0.00;0.00;;;;;10.09;82.06;98003.34;5136031;27;9503;-58
2023/03/31 07:42:56;;;;;;;;;0.00;0.00;;;;;10.08;82.04;98007.00;5136425;27;8837;-59
2023/03/31 07:45:24;;;;;;;;;1.00;0.00;;;;;10.07;82.05;98001.84;5136701;27;9692;-60
2023/03/31 07:47:52;;;;;;;;;0.00;0.00;;;;;10.07;82.02;97994.69;5136773;27;8848;-59
2023/03/31 07:50:20;;;;;;;;;0.75;0.75;;;;;10.06;82.38;97984.22;5137147;27;9534;-59
2023/03/31 07:52:48;;;;;;;;;0.00;0.00;;;;;10.04;82.08;97991.53;5137133;27;8906;-59
2023/03/31 07:55:16;;;;;;;;;0.00;0.00;;;;;10.04;82.13;97999.53;5137041;27;8837;-59
2023/03/31 07:57:45;;;;;;;;;0.00;0.00;;;;;10.04;82.46;97981.75;5137159;27;8842;-59
2023/03/31 08:00:13;;;;;;;;;0.00;0.00;;;;;10.07;82.20;97977.91;5136143;27;9147;-60
2023/03/31 08:02:41;;;;;;;;;0.00;0.00;;;;;10.09;82.37;97973.28;5135160;27;8900;-59
2023/03/31 08:05:10;;;;;;;;;0.00;0.00;;;;;10.11;82.30;97974.75;5135681;27;8845;-59
2023/03/31 08:07:38;;;;;;;;;0.00;0.00;;;;;10.12;82.49;97967.59;5135892;27;9527;-59
2023/03/31 08:10:05;;;;;;;;;0.00;0.00;;;;;10.12;81.63;97968.44;5136190;27;9527;-60
2023/03/31 08:12:33;;;;;;;;;0.00;0.00;;;;;10.16;82.43;97956.47;5134932;27;8844;-59
2023/03/31 08:15:01;;;;;;;;;0.00;0.00;;;;;10.22;82.23;97960.25;5136088;27;9251;-59
2023/03/31 08:17:29;;;;;;;;;0.00;0.00;;;;;10.29;82.10;97969.25;5134436;27;8856;-59
2023/03/31 08:19:57;;;;;;;;;0.00;0.00;;;;;10.34;82.05;97958.94;5133313;27;9350;-59
2023/03/31 08:22:31;;;;;;;;;0.00;0.00;;;;;10.41;82.23;97944.75;5133752;27;9554;-60
2023/03/31 08:25:00;;;;;;;;;0.00;0.00;;;;;10.45;82.11;97948.75;5133703;27;8967;-59
2023/03/31 08:27:27;;;;;;;;;0.00;0.00;;;;;10.54;82.10;97955.72;5134463;27;8856;-59
2023/03/31 08:29:55;;;;;;;;;0.00;0.00;;;;;10.63;81.88;97962.66;5133860;27;8829;-60
2023/03/31 08:32:24;;;;;;;;;0.00;0.00;;;;;10.76;81.45;97954.97;5134813;27;8853;-59
2023/03/31 08:34:51;;;;;;;;;0.00;0.00;;;;;10.92;80.95;97943.47;5133618;27;8955;-59
2023/03/31 08:37:20;;;;;;;;;0.00;0.00;;;;;11.08;80.70;97946.84;5134618;27;8845;-58
2023/03/31 08:39:48;;;;;;;;;0.00;0.00;;;;;11.25;79.96;97940.47;5135095;27;9523;-57
2023/03/31 08:42:17;;;;;;;;;0.00;0.00;;;;;11.41;79.46;97923.53;5135933;27;8833;-59
2023/03/31 08:44:45;;;;;;;;;0.00;0.00;;;;;11.59;79.20;97940.09;5136553;27;8869;-57
2023/03/31 08:47:13;;;;;;;;;0.00;0.00;;;;;11.77;78.75;97936.13;5135721;27;8833;-58
2023/03/31 08:49:41;;;;;;;;;0.00;0.00;;;;;11.96;78.73;97940.97;5134382;27;8846;-57
2023/03/31 08:52:09;;;;;;;;;0.00;0.00;;;;;12.14;78.05;97923.63;5136130;27;9510;-59
2023/03/31 08:54:37;;;;;;;;;0.00;0.00;;;;;12.31;77.66;97911.78;5135394;27;9149;-57
2023/03/31 08:57:05;;;;;;;;;0.00;0.00;;;;;12.43;77.36;97920.16;5135294;27;9530;-58
2023/03/31 08:59:33;;;;;;;;;2.00;0.00;;;;;12.49;76.66;97928.28;5134796;27;8873;-58
2023/03/31 09:02:01;;;;;;;;;0.00;0.00;;;;;12.56;76.37;97923.88;5135175;27;8830;-59
2023/03/31 09:04:29;;;;;;;;;0.00;0.00;;;;;12.64;76.59;97921.09;5133422;27;8856;-60
2023/03/31 09:06:58;;;;;;;;;0.00;0.00;;;;;12.74;76.34;97915.47;5133285;27;8838;-60
2023/03/31 09:09:26;;;;;;;;;0.00;0.00;;;;;12.81;75.54;97914.56;5132802;27;8860;-60
2023/03/31 09:11:54;;;;;;;;;0.00;0.00;;;;;12.84;75.96;97929.38;5131643;27;8829;-60
2023/03/31 09:14:22;;;;;;;;;0.00;0.00;;;;;12.88;75.45;97922.63;5131691;27;8817;-60
2023/03/31 09:16:50;;;;;;;;;0.00;0.00;;;;;12.95;75.43;97920.91;5132631;27;8848;-60
2023/03/31 09:19:18;;;;;;;;;0.00;0.00;;;;;13.08;74.95;97918.41;5133913;27;8850;-60
2023/03/31 09:21:46;;;;;;;;;0.00;0.00;;;;;13.12;74.82;97909.00;5134341;27;8833;-59
2023/03/31 09:24:14;;;;;;;;;0.00;0.00;;;;;13.07;75.22;97900.72;5133974;27;8867;-60
2023/03/31 09:26:42;;;;;;;;;0.00;0.00;;;;;13.02;74.65;97909.31;5134932;27;8914;-60
2023/03/31 09:29:10;;;;;;;;;0.00;0.00;;;;;12.96;75.13;97895.84;5134170;27;8826;-60
2023/03/31 09:31:38;;;;;;;;;0.00;0.00;;;;;12.80;75.63;97912.91;5134640;27;8883;-60
2023/03/31 09:34:06;;;;;;;;;0.00;0.00;;;;;12.48;76.63;97907.94;5134386;27;8849;-60
2023/03/31 09:36:34;;;;;;;;;0.00;0.00;;;;;12.16;77.21;97907.44;5134174;27;8840;-59
2023/03/31 09:39:02;;;;;;;;;0.00;0.00;;;;;11.92;78.36;97913.00;5134236;27;8959;-59
2023/03/31 09:41:31;;;;;;;;;1.00;0.00;;;;;11.79;78.32;97919.94;5133338;27;8830;-60
2023/03/31 09:44:01;;;;;;;;;0.75;0.75;;;;;11.70;78.98;97911.19;5133925;27;8826;-60
2023/03/31 09:46:29;;;;;;;;;1.00;1.00;;;;;11.65;78.80;97900.22;5134412;27;8837;-60
2023/03/31 09:48:57;;;;;;;;;0.50;0.50;;;;;11.78;78.81;97889.78;5134136;27;9003;-59
2023/03/31 09:51:25;;;;;;;;;0.00;0.00;;;;;12.02;78.49;97897.56;5134258;27;9553;-59
2023/03/31 09:53:54;;;;;;;;;0.00;0.00;;;;;12.33;77.35;97890.25;5133892;27;8841;-60
2023/03/31 09:56:22;;;;;;;;;1.00;1.00;;;;;12.64;76.91;97882.88;5134527;27;9264;-60
2023/03/31 09:58:50;;;;;;;;;0.50;0.00;;;;;12.91;76.04;97883.03;5134407;27;8842;-61
2023/03/31 10:01:18;;;;;;;;;0.00;0.00;;;;;13.15;75.66;97884.59;5131482;27;8842;-60
2023/03/31 10:03:46;;;;;;;;;0.00;0.00;;;;;13.38;75.14;97874.56;5132301;27;9188;-60
2023/03/31 10:06:14;;;;;;;;;1.00;1.00;;;;;13.62;74.37;97874.16;5132239;27;8826;-60
2023/03/31 10:08:42;;;;;;;;;0.75;0.75;;;;;13.88;73.83;97856.50;5132445;27;8837;-61
2023/03/31 10:11:10;;;;;;;;;0.00;0.00;;;;;14.07;73.75;97866.53;5132216;27;8849;-59
2023/03/31 10:13:38;;;;;;;;;0.00;0.00;;;;;14.14;73.13;97869.25;5131728;27;8853;-60
2023/03/31 10:16:07;;;;;;;;;0.75;0.75;;;;;14.07;73.34;97860.34;5132894;27;8960;-60
2023/03/31 10:18:35;;;;;;;;;0.25;0.25;;;;;13.91;73.89;97853.47;5131206;27;8837;-60
2023/03/31 10:21:03;;;;;;;;;0.00;0.00;;;;;13.82;74.11;97853.78;5130812;27;8833;-60
2023/03/31 10:23:32;;;;;;;;;0.00;0.00;;;;;13.76;74.42;97843.84;5130108;27;8838;-61
2023/03/31 10:26:00;;;;;;;;;0.50;0.00;;;;;13.70;74.13;97840.09;5130356;27;8826;-59
2023/03/31 10:28:28;;;;;;;;;0.25;0.25;;;;;13.71;74.67;97838.25;5131478;27;8928;-58
2023/03/31 10:30:56;;;;;;;;;0.00;0.00;;;;;13.78;74.30;97837.28;5130882;27;8837;-58
2023/03/31 10:33:25;;;;;;;;;2.75;1.75;;;;;13.88;74.18;97818.22;5131677;27;8834;-61
2023/03/31 10:35:53;;;;;;;;;0.25;0.25;;;;;14.00;73.79;97820.16;5130612;27;8837;-61
2023/03/31 10:38:21;;;;;;;;;1.00;1.00;;;;;14.13;73.79;97819.44;5129897;27;8829;-60
2023/03/31 10:40:49;;;;;;;;;0.25;0.00;;;;;14.23;73.32;97809.22;5130967;27;9515;-60
2023/03/31 10:43:17;;;;;;;;;1.00;1.00;;;;;14.35;72.96;97807.66;5131808;27;9631;-60
2023/03/31 10:45:45;;;;;;;;;1.00;0.50;;;;;14.44;72.45;97796.59;5132309;27;9554;-60
2023/03/31 10:48:13;;;;;;;;;0.50;0.50;;;;;14.55;72.61;97800.53;5131438;27;9534;-60
2023/03/31 10:50:41;;;;;;;;;0.00;0.00;;;;;14.62;72.00;97793.34;5132782;27;8830;-60
2023/03/31 10:53:09;;;;;;;;;0.75;0.75;;;;;14.61;72.45;97792.53;5132075;27;8834;-60
2023/03/31 10:55:37;;;;;;;;;1.00;0.00;;;;;14.53;72.04;97805.25;5131413;27;8964;-60
2023/03/31 10:58:06;;;;;;;;;0.00;0.00;;;;;14.38;72.74;97804.56;5130393;27;8845;-60
2023/03/31 11:00:34;;;;;;;;;0.00;0.00;;;;;14.00;73.64;97828.19;5130233;27;8818;-60
2023/03/31 11:03:02;;;;;;;;;1.00;1.00;;;;;13.49;74.29;97884.72;5129372;27;8863;-59
2023/03/31 11:05:31;;;;;;;;;1.50;1.00;;;;;12.65;75.91;97869.34;5129436;27;8845;-58
2023/03/31 11:07:58;;;;;;;;;0.33;0.33;;;;;12.07;77.48;97840.00;5129291;27;8821;-59
2023/03/31 11:10:27;;;;;;;;;0.75;0.75;;;;;11.64;78.34;97839.91;5129353;27;8837;-60
2023/03/31 11:12:55;;;;;;;;;0.00;0.00;;;;;11.38;78.77;97842.09;5130588;27;8853;-59
2023/03/31 11:15:22;;;;;;;;;0.00;0.00;;;;;11.19;79.46;97850.56;5134808;27;8826;-59
2023/03/31 11:17:51;;;;;;;;;1.50;1.50;;;;;11.11;79.30;97845.31;5133492;27;8826;-58
2023/03/31 11:20:18;;;;;;;;;0.00;0.00;;;;;11.09;79.44;97838.50;5134159;27;9658;-59
2023/03/31 11:22:47;;;;;;;;;0.00;0.00;;;;;11.15;79.99;97835.94;5134311;27;8825;-58
2023/03/31 11:25:16;;;;;;;;;1.75;0.75;;;;;11.27;79.47;97837.19;5133958;27;8865;-59
2023/03/31 11:27:44;;;;;;;;;0.00;0.00;;;;;11.46;78.85;97803.91;5133117;27;8834;-58
2023/03/31 11:30:12;;;;;;;;;1.00;1.00;;;;;11.73;78.16;97801.50;5132708;27;9498;-59
2023/03/31 11:32:40;;;;;;;;;1.00;1.00;;;;;12.20;76.91;97796.66;5132036;27;8833;-59
2023/03/31 11:35:08;;;;;;;;;0.50;0.50;;;;;12.98;75.48;97795.81;5132824;27;8841;-58
2023/03/31 11:37:40;;;;;;;;;1.00;1.00;;;;;13.86;73.82;97786.31;5132501;27;9636;-59
2023/03/31 11:40:08;;;;;;;;;0.50;0.00;;;;;14.77;71.12;97780.63;5132275;27;8838;-58
2023/03/31 11:42:37;;;;;;;;;4.00;3.00;;;;;15.88;69.29;97766.34;5133394;27;8852;-59
2023/03/31 11:45:05;;;;;;;;;0.75;0.00;;;;;16.69;67.33;97755.81;5132942;27;8881;-59